Time;durP1;ratioP1;P1;durP2;ratioP2;P2;SDS_P1;SDS_P2;PMS_P1;PMS_P2;Temp;Humidity;BMP_temperature;BMP_pressure;BME280_temperature;BME280_humidity;BME280_pressure;Samples;Min_cycle;Max_cycle;Signal;HPM_P1;HPM_P2
2022/02/24 00:00:32;;;;;;;34.58;21.45;;;18.60;92.60;;;;;;4163163;28;20053;-65
2022/02/24 00:02:40;;;;;;;30.15;21.50;;;18.60;92.50;;;;;;4163872;28;20053;-64
2022/02/24 00:04:47;;;;;;;30.45;21.58;;;18.70;92.30;;;;;;4163245;28;20522;-65
2022/02/24 00:06:53;;;;;;;34.65;23.65;;;18.70;92.40;;;;;;4163187;28;20096;-65
2022/02/24 00:09:00;;;;;;;35.13;24.25;;;18.70;92.50;;;;;;4163522;28;20099;-64
2022/02/24 00:11:06;;;;;;;31.63;23.17;;;18.70;92.40;;;;;;4163388;28;20172;-64
2022/02/24 00:13:13;;;;;;;29.25;21.33;;;18.70;92.40;;;;;;4165438;28;20057;-63
2022/02/24 00:15:19;;;;;;;27.80;19.85;;;18.70;92.60;;;;;;4167236;28;20053;-65
2022/02/24 00:17:24;;;;;;;31.83;21.05;;;18.70;92.60;;;;;;4163425;28;20047;-65
2022/02/24 00:19:30;;;;;;;29.05;20.50;;;18.60;92.40;;;;;;4163174;28;20054;-64
2022/02/24 00:21:35;;;;;;;29.23;20.17;;;18.30;93.00;;;;;;4163639;28;20384;-64
2022/02/24 00:23:42;;;;;;;32.30;20.27;;;18.40;92.90;;;;;;4163240;28;20504;-65
2022/02/24 00:25:47;;;;;;;27.15;19.17;;;18.40;92.50;;;;;;4162701;28;20046;-65
2022/02/24 00:27:52;;;;;;;28.83;19.38;;;18.20;92.70;;;;;;4162157;28;20136;-65
2022/02/24 00:29:58;;;;;;;26.67;19.00;;;18.30;92.80;;;;;;4163222;28;20136;-64
2022/02/24 00:32:03;;;;;;;28.30;19.30;;;18.40;92.40;;;;;;4155181;28;20100;-64
2022/02/24 00:34:10;;;;;;;31.58;18.60;;;18.50;92.00;;;;;;4162539;28;20041;-64
2022/02/24 00:36:15;;;;;;;26.13;18.63;;;18.30;91.80;;;;;;4162689;28;20063;-64
2022/02/24 00:38:20;;;;;;;25.00;17.27;;;18.00;91.60;;;;;;4163187;28;20050;-65
2022/02/24 00:40:27;;;;;;;26.15;17.50;;;18.20;91.50;;;;;;4161781;28;20049;-64
2022/02/24 00:42:39;;;;;;;27.25;17.40;;;18.30;91.20;;;;;;4163047;28;20084;-64
2022/02/24 00:44:43;;;;;;;24.15;17.60;;;18.30;91.20;;;;;;4162935;28;20654;-65
2022/02/24 00:46:50;;;;;;;22.48;17.02;;;18.40;91.40;;;;;;4162287;28;20041;-65
2022/02/24 00:48:58;;;;;;;22.85;16.60;;;18.50;90.90;;;;;;4162924;28;20068;-65
2022/02/24 00:51:02;;;;;;;24.25;16.30;;;18.30;91.00;;;;;;4162793;28;20175;-64
2022/02/24 00:53:10;;;;;;;23.23;16.50;;;18.10;90.80;;;;;;4163044;28;20046;-65
2022/02/24 00:55:17;;;;;;;27.35;16.77;;;18.30;91.10;;;;;;4162377;28;20049;-64
2022/02/24 00:57:21;;;;;;;24.55;16.70;;;18.30;90.70;;;;;;4162218;28;20041;-65
2022/02/24 00:59:25;;;;;;;25.10;17.02;;;18.30;90.60;;;;;;4162334;28;20076;-64
2022/02/24 01:01:32;;;;;;;23.63;17.25;;;18.20;90.70;;;;;;4162210;28;20041;-64
2022/02/24 01:03:37;;;;;;;23.02;16.35;;;18.20;90.70;;;;;;4162556;28;20054;-65
2022/02/24 01:05:44;;;;;;;23.73;16.70;;;18.40;90.80;;;;;;4162704;28;20076;-65
2022/02/24 01:07:53;;;;;;;23.60;15.60;;;18.50;90.20;;;;;;4162049;28;20574;-64
2022/02/24 01:09:57;;;;;;;24.17;17.27;;;18.50;90.10;;;;;;4162789;28;20476;-64
2022/02/24 01:12:03;;;;;;;22.90;16.02;;;18.70;90.20;;;;;;4162393;28;20119;-64
2022/02/24 01:14:10;;;;;;;28.27;17.40;;;18.80;90.00;;;;;;4164513;28;20088;-66
2022/02/24 01:16:15;;;;;;;32.10;18.80;;;18.70;89.50;;;;;;4162098;28;20045;-63
2022/02/24 01:18:21;;;;;;;26.70;16.50;;;18.70;89.50;;;;;;4162086;28;20090;-64
2022/02/24 01:20:32;;;;;;;28.85;18.00;;;18.70;88.80;;;;;;4161856;28;20042;-65
2022/02/24 01:22:37;;;;;;;21.52;15.63;;;18.90;89.00;;;;;;4161890;28;20454;-64
2022/02/24 01:24:43;;;;;;;20.02;15.52;;;18.70;88.80;;;;;;4162000;28;20152;-64
2022/02/24 01:26:50;;;;;;;20.58;14.70;;;18.50;88.30;;;;;;4161578;28;20103;-64
2022/02/24 01:28:55;;;;;;;22.77;14.48;;;18.60;88.20;;;;;;4162066;28;20045;-64
2022/02/24 01:31:04;;;;;;;25.90;15.52;;;18.60;88.00;;;;;;4161878;28;20045;-63
2022/02/24 01:33:11;;;;;;;21.05;14.90;;;18.80;88.00;;;;;;4162317;28;20045;-64
2022/02/24 01:35:16;;;;;;;24.45;15.35;;;19.00;87.60;;;;;;4162128;28;20041;-64
2022/02/24 01:37:23;;;;;;;22.55;15.18;;;18.90;87.70;;;;;;4161947;28;20132;-64
2022/02/24 01:39:30;;;;;;;24.55;15.43;;;19.00;88.60;;;;;;4161723;28;20412;-64
2022/02/24 01:41:36;;;;;;;25.98;15.75;;;19.10;87.90;;;;;;4160201;28;20054;-64
2022/02/24 01:43:45;;;;;;;27.75;16.08;;;19.00;88.20;;;;;;4161915;28;20115;-64
2022/02/24 01:45:51;;;;;;;23.85;16.08;;;19.30;88.60;;;;;;4161465;28;20049;-63
2022/02/24 01:47:58;;;;;;;27.30;15.90;;;19.30;87.30;;;;;;4161618;28;20037;-63
2022/02/24 01:50:08;;;;;;;24.63;15.13;;;19.40;86.80;;;;;;4161758;28;20045;-64
2022/02/24 01:52:14;;;;;;;21.98;15.40;;;19.40;86.60;;;;;;4159837;28;20049;-64
2022/02/24 01:54:19;;;;;;;21.73;15.77;;;19.40;87.10;;;;;;4162020;28;20044;-65
2022/02/24 01:56:25;;;;;;;21.60;15.23;;;19.40;86.20;;;;;;4160312;28;20041;-64
2022/02/24 01:58:33;;;;;;;22.85;15.45;;;19.40;86.40;;;;;;4159305;28;20431;-64
2022/02/24 02:00:40;;;;;;;23.63;14.60;;;19.40;86.20;;;;;;4161649;28;20057;-64
2022/02/24 02:02:47;;;;;;;19.73;15.15;;;19.40;86.00;;;;;;4161555;28;20077;-65
2022/02/24 02:04:55;;;;;;;19.92;14.90;;;19.40;86.60;;;;;;4161506;28;20100;-64
2022/02/24 02:07:01;;;;;;;20.23;14.45;;;19.30;87.40;;;;;;4161122;28;20140;-64
2022/02/24 02:09:09;;;;;;;25.23;15.23;;;19.30;85.90;;;;;;4160777;28;20761;-64
2022/02/24 02:11:16;;;;;;;21.05;14.65;;;19.50;86.30;;;;;;4161651;28;20038;-65
2022/02/24 02:13:21;;;;;;;19.50;14.27;;;19.50;85.40;;;;;;4161814;28;20449;-64
2022/02/24 02:15:29;;;;;;;20.20;14.63;;;19.30;86.30;;;;;;4161075;28;20045;-64
2022/02/24 02:17:35;;;;;;;20.23;13.98;;;19.40;86.40;;;;;;4151748;28;20057;-64
2022/02/24 02:19:39;;;;;;;19.17;13.70;;;19.50;86.70;;;;;;4154280;28;20095;-64
2022/02/24 02:21:49;;;;;;;22.02;15.05;;;19.50;86.20;;;;;;4161503;28;20404;-64
2022/02/24 02:23:53;;;;;;;23.70;15.48;;;19.50;86.30;;;;;;4161704;28;20669;-64
2022/02/24 02:25:58;;;;;;;19.40;14.48;;;19.60;87.10;;;;;;4161129;28;20538;-63
2022/02/24 02:28:05;;;;;;;18.88;14.25;;;19.80;86.80;;;;;;4161064;28;20034;-64
2022/02/24 02:30:15;;;;;;;20.40;15.00;;;19.70;85.30;;;;;;4161790;28;20044;-64
2022/02/24 02:32:20;;;;;;;22.15;13.65;;;19.60;86.20;;;;;;4161190;28;20107;-64
2022/02/24 02:34:27;;;;;;;19.13;14.07;;;19.90;85.90;;;;;;4161658;28;20077;-64
2022/02/24 02:36:35;;;;;;;19.52;13.63;;;19.90;85.80;;;;;;4161551;28;20610;-65
2022/02/24 02:38:40;;;;;;;17.50;13.23;;;20.00;85.50;;;;;;4160746;28;20499;-65
2022/02/24 02:40:46;;;;;;;20.40;13.90;;;20.20;85.30;;;;;;4153591;28;20049;-64
2022/02/24 02:42:53;;;;;;;21.75;14.07;;;20.20;85.10;;;;;;4161397;28;20053;-64
2022/02/24 02:44:58;;;;;;;25.65;13.98;;;20.40;84.90;;;;;;4161541;28;20235;-64
2022/02/24 02:47:06;;;;;;;23.30;13.45;;;20.50;84.80;;;;;;4161306;28;20108;-65
2022/02/24 02:49:16;;;;;;;19.95;13.65;;;20.60;83.40;;;;;;4163687;28;20041;-64
2022/02/24 02:51:20;;;;;;;21.80;12.52;;;20.70;82.10;;;;;;4161629;28;20076;-64
2022/02/24 02:53:27;;;;;;;17.85;12.60;;;20.70;81.60;;;;;;4161017;28;20050;-64
2022/02/24 02:55:33;;;;;;;19.15;12.77;;;20.70;81.30;;;;;;4161509;28;20121;-63
2022/02/24 02:57:39;;;;;;;17.83;12.70;;;20.80;81.90;;;;;;4160387;28;20489;-64
2022/02/24 02:59:45;;;;;;;17.23;12.02;;;20.80;81.40;;;;;;4161100;28;20140;-64
2022/02/24 03:01:53;;;;;;;17.70;12.40;;;20.80;80.90;;;;;;4153990;28;20053;-64
2022/02/24 03:03:58;;;;;;;18.90;11.90;;;20.80;81.10;;;;;;4160158;28;20049;-64
2022/02/24 03:06:04;;;;;;;23.08;12.05;;;20.90;80.80;;;;;;4160867;28;20107;-64
2022/02/24 03:08:11;;;;;;;17.98;12.05;;;21.10;80.90;;;;;;4160911;28;20565;-64
2022/02/24 03:10:16;;;;;;;19.08;11.65;;;21.30;81.40;;;;;;4161356;28;20660;-64
2022/02/24 03:12:25;;;;;;;16.55;11.85;;;21.30;80.90;;;;;;4161035;28;20041;-64
2022/02/24 03:14:32;;;;;;;17.38;11.15;;;21.40;80.00;;;;;;4161201;28;20045;-64
2022/02/24 03:16:37;;;;;;;16.70;11.80;;;21.40;79.20;;;;;;4161053;28;20049;-64
2022/02/24 03:18:44;;;;;;;19.20;11.27;;;21.40;80.00;;;;;;4160715;28;20518;-64
2022/02/24 03:20:51;;;;;;;15.77;11.38;;;21.40;80.00;;;;;;4160866;28;20651;-64
2022/02/24 03:23:01;;;;;;;16.50;11.15;;;21.40;78.90;;;;;;4153925;28;20494;-64
2022/02/24 03:25:08;;;;;;;15.40;10.45;;;21.50;79.80;;;;;;4161332;28;20080;-64
2022/02/24 03:27:15;;;;;;;15.38;10.85;;;21.60;79.80;;;;;;4161458;28;20033;-65
2022/02/24 03:29:20;;;;;;;14.70;11.52;;;21.60;78.30;;;;;;4163218;28;20042;-63
2022/02/24 03:31:26;;;;;;;15.48;10.63;;;21.60;79.00;;;;;;4164040;28;20042;-64
2022/02/24 03:33:31;;;;;;;16.73;11.85;;;21.70;79.00;;;;;;4164240;28;20034;-64
2022/02/24 03:35:36;;;;;;;17.73;10.43;;;21.80;79.40;;;;;;4163648;28;20045;-63
2022/02/24 03:37:43;;;;;;;13.77;10.50;;;21.80;78.20;;;;;;4162398;28;20045;-64
2022/02/24 03:39:48;;;;;;;15.35;10.43;;;21.80;79.00;;;;;;4163958;28;20052;-64
2022/02/24 03:41:53;;;;;;;14.85;10.98;;;21.80;78.90;;;;;;4163467;28;20136;-64
2022/02/24 03:44:00;;;;;;;17.15;11.88;;;22.00;79.80;;;;;;4163839;28;20053;-64
2022/02/24 03:46:07;;;;;;;13.90;10.93;;;22.10;78.60;;;;;;4154593;28;20059;-64
2022/02/24 03:48:12;;;;;;;15.88;11.18;;;22.00;77.10;;;;;;4155861;28;20049;-65
2022/02/24 03:50:19;;;;;;;14.70;10.73;;;21.90;77.70;;;;;;4163033;28;20550;-64
2022/02/24 03:52:25;;;;;;;16.98;11.07;;;22.00;77.70;;;;;;4163358;28;20477;-64
2022/02/24 03:54:30;;;;;;;15.85;10.73;;;22.00;77.40;;;;;;4162458;28;20698;-62
2022/02/24 03:56:39;;;;;;;13.05;10.25;;;22.00;76.70;;;;;;4163466;28;20526;-61
2022/02/24 03:58:45;;;;;;;13.45;9.85;;;21.90;77.90;;;;;;4162950;28;20049;-62
2022/02/24 04:00:50;;;;;;;14.25;10.77;;;22.10;78.70;;;;;;4163402;28;20047;-62
2022/02/24 04:03:00;;;;;;;12.68;10.40;;;22.20;78.50;;;;;;4163506;28;20037;-62
2022/02/24 04:05:11;;;;;;;13.40;10.02;;;22.30;77.90;;;;;;4163391;28;20041;-62
2022/02/24 04:07:15;;;;;;;13.98;9.93;;;22.30;77.50;;;;;;4163019;28;20099;-62
2022/02/24 04:09:22;;;;;;;14.45;10.13;;;22.40;77.50;;;;;;4162663;28;20588;-63
2022/02/24 04:11:28;;;;;;;14.98;10.43;;;22.40;76.30;;;;;;4163223;28;20076;-62
2022/02/24 04:13:35;;;;;;;14.30;10.55;;;22.40;77.40;;;;;;4163320;28;20136;-62
2022/02/24 04:15:44;;;;;;;18.10;10.02;;;22.50;77.90;;;;;;4163462;28;20033;-62
2022/02/24 04:17:51;;;;;;;13.93;10.77;;;22.60;78.70;;;;;;4163182;28;20107;-63
2022/02/24 04:19:56;;;;;;;17.85;10.93;;;22.70;78.00;;;;;;4162750;28;20042;-62
2022/02/24 04:22:03;;;;;;;12.38;9.68;;;22.80;78.40;;;;;;4163144;28;20102;-62
2022/02/24 04:24:12;;;;;;;18.27;10.10;;;22.80;77.60;;;;;;4162998;28;20377;-62
2022/02/24 04:26:17;;;;;;;13.70;9.95;;;22.90;78.30;;;;;;4152907;28;20049;-62
2022/02/24 04:28:25;;;;;;;11.82;9.50;;;22.90;77.30;;;;;;4162578;28;20045;-62
2022/02/24 04:30:31;;;;;;;15.10;10.13;;;22.90;77.90;;;;;;4162752;28;20048;-62
2022/02/24 04:32:36;;;;;;;13.77;10.05;;;23.00;77.90;;;;;;4163033;28;20045;-62
2022/02/24 04:34:43;;;;;;;17.05;10.13;;;23.00;78.40;;;;;;4162584;28;20034;-62
2022/02/24 04:36:52;;;;;;;15.50;10.35;;;23.10;78.50;;;;;;4162477;28;20045;-65
2022/02/24 04:38:57;;;;;;;11.90;9.60;;;23.10;78.40;;;;;;4161086;28;20606;-64
2022/02/24 04:41:02;;;;;;;13.13;9.68;;;23.20;76.90;;;;;;4161037;28;20083;-64
2022/02/24 04:43:09;;;;;;;14.25;9.57;;;23.20;76.40;;;;;;4127319;28;20045;-64
2022/02/24 04:45:14;;;;;;;18.00;10.27;;;23.30;76.80;;;;;;4115111;28;20134;-64
2022/02/24 04:47:22;;;;;;;13.85;9.80;;;23.30;75.90;;;;;;4121756;28;20105;-64
2022/02/24 04:49:27;;;;;;;15.02;9.70;;;23.30;76.70;;;;;;4114071;28;20039;-64
2022/02/24 04:51:33;;;;;;;13.80;9.88;;;23.50;77.40;;;;;;4127548;28;20042;-64
2022/02/24 04:53:40;;;;;;;15.00;9.70;;;23.50;76.60;;;;;;4122334;28;20046;-64
2022/02/24 04:55:46;;;;;;;14.52;9.52;;;23.50;76.00;;;;;;4130163;28;20054;-64
2022/02/24 04:57:53;;;;;;;13.30;9.50;;;23.40;76.30;;;;;;4129150;28;20046;-64
2022/02/24 05:00:00;;;;;;;11.60;9.30;;;23.50;76.70;;;;;;4127438;28;20061;-63
2022/02/24 05:02:09;;;;;;;15.48;10.13;;;23.50;76.10;;;;;;4122636;28;20154;-63
2022/02/24 05:04:16;;;;;;;13.73;10.13;;;23.60;75.80;;;;;;4122292;28;20137;-64
2022/02/24 05:06:21;;;;;;;13.45;9.43;;;23.60;75.90;;;;;;4126053;28;20546;-63
2022/02/24 05:08:29;;;;;;;13.30;10.05;;;23.60;75.50;;;;;;4129937;28;20054;-64
2022/02/24 05:10:34;;;;;;;12.80;9.93;;;23.70;76.30;;;;;;4128191;28;20111;-64
2022/02/24 05:12:41;;;;;;;14.63;9.93;;;23.70;74.80;;;;;;4129686;28;20155;-63
2022/02/24 05:14:48;;;;;;;12.98;9.35;;;23.60;75.30;;;;;;4129969;28;20066;-64
2022/02/24 05:16:54;;;;;;;12.32;9.57;;;23.60;75.10;;;;;;4129648;28;20059;-64
2022/02/24 05:19:01;;;;;;;14.52;9.38;;;23.60;75.40;;;;;;4129964;28;20073;-64
2022/02/24 05:21:09;;;;;;;11.48;9.00;;;23.70;75.10;;;;;;4129146;28;20069;-64
2022/02/24 05:23:14;;;;;;;12.43;10.05;;;23.70;75.30;;;;;;4129544;28;20113;-66
2022/02/24 05:25:21;;;;;;;15.43;10.23;;;23.60;76.30;;;;;;4130188;28;20054;-64
2022/02/24 05:27:29;;;;;;;14.48;9.68;;;23.70;75.80;;;;;;4129575;28;20121;-64
2022/02/24 05:29:34;;;;;;;15.20;10.27;;;23.80;76.00;;;;;;4120528;28;20808;-65
2022/02/24 05:31:42;;;;;;;13.70;9.98;;;23.90;76.00;;;;;;4129797;28;20097;-65
2022/02/24 05:33:48;;;;;;;13.30;9.95;;;23.90;75.30;;;;;;4120658;28;20039;-65
2022/02/24 05:35:53;;;;;;;14.65;9.45;;;24.00;75.30;;;;;;4129414;28;20068;-64
2022/02/24 05:38:00;;;;;;;12.73;9.02;;;24.10;76.00;;;;;;4129207;28;20058;-65
2022/02/24 05:40:08;;;;;;;10.90;9.15;;;24.20;75.90;;;;;;4127371;28;20046;-65
2022/02/24 05:42:13;;;;;;;10.98;8.57;;;24.30;75.90;;;;;;4147931;28;20060;-66
2022/02/24 05:44:21;;;;;;;12.80;9.32;;;24.30;75.30;;;;;;4162128;28;20515;-66
2022/02/24 05:46:27;;;;;;;12.88;9.38;;;24.30;75.40;;;;;;4161678;28;20076;-65
2022/02/24 05:48:32;;;;;;;13.23;9.63;;;24.30;75.10;;;;;;4162101;28;20071;-65
2022/02/24 05:50:40;;;;;;;13.52;9.23;;;24.40;75.60;;;;;;4161548;28;20049;-65
2022/02/24 05:52:47;;;;;;;11.75;8.32;;;24.40;74.80;;;;;;4161651;28;20041;-65
2022/02/24 05:54:53;;;;;;;14.32;9.38;;;24.40;74.80;;;;;;4161796;28;20100;-65
2022/02/24 05:56:58;;;;;;;12.00;8.85;;;24.40;75.70;;;;;;4161983;28;20056;-65
2022/02/24 05:59:02;;;;;;;12.85;8.80;;;24.50;75.60;;;;;;4160767;28;20045;-65
2022/02/24 06:01:08;;;;;;;11.85;8.40;;;24.60;74.50;;;;;;4161584;28;20065;-65
2022/02/24 06:03:12;;;;;;;11.57;8.75;;;24.60;75.10;;;;;;4154135;28;20045;-65
2022/02/24 06:05:21;;;;;;;10.68;9.05;;;24.60;75.10;;;;;;4151146;28;20520;-65
2022/02/24 06:07:25;;;;;;;13.70;8.98;;;24.70;75.10;;;;;;4155316;28;20103;-65
2022/02/24 06:09:32;;;;;;;11.52;9.18;;;24.70;74.50;;;;;;4163906;28;20104;-65
2022/02/24 06:11:38;;;;;;;13.30;9.52;;;24.70;75.10;;;;;;4160682;28;20111;-65
2022/02/24 06:13:43;;;;;;;12.98;9.07;;;24.70;74.00;;;;;;4152801;28;20080;-65
2022/02/24 06:15:49;;;;;;;12.32;9.25;;;24.70;73.90;;;;;;4160612;28;20465;-65
2022/02/24 06:17:54;;;;;;;13.20;9.55;;;24.70;73.70;;;;;;4161400;28;20080;-65
2022/02/24 06:19:59;;;;;;;15.40;9.40;;;24.70;74.20;;;;;;4161781;28;20512;-65
2022/02/24 06:22:06;;;;;;;13.13;9.77;;;24.70;74.90;;;;;;4160738;28;20080;-65
2022/02/24 06:24:10;;;;;;;13.02;10.18;;;24.80;74.70;;;;;;4161059;28;20072;-65
2022/02/24 06:26:17;;;;;;;15.98;9.77;;;24.80;74.70;;;;;;4159965;28;20863;-65
2022/02/24 06:28:23;;;;;;;14.13;10.23;;;24.80;73.90;;;;;;4161385;28;20103;-65
2022/02/24 06:30:30;;;;;;;12.52;9.85;;;24.80;74.60;;;;;;4160779;28;20052;-65
2022/02/24 06:32:37;;;;;;;11.35;10.13;;;24.90;74.80;;;;;;4160590;28;20053;-63
2022/02/24 06:34:42;;;;;;;14.20;9.93;;;24.90;74.60;;;;;;4161949;28;20056;-63
2022/02/24 06:36:47;;;;;;;15.10;10.70;;;24.90;74.70;;;;;;4159526;28;20045;-64
2022/02/24 06:38:52;;;;;;;14.00;10.35;;;25.10;75.20;;;;;;4161282;28;20061;-65
2022/02/24 06:40:58;;;;;;;14.27;9.80;;;25.10;73.90;;;;;;4160560;28;20140;-65
2022/02/24 06:43:04;;;;;;;14.57;9.93;;;24.90;73.90;;;;;;4161041;28;20080;-66
2022/02/24 06:45:09;;;;;;;13.88;9.63;;;25.00;74.90;;;;;;4160645;28;20488;-65
2022/02/24 06:47:15;;;;;;;13.30;9.55;;;25.10;73.80;;;;;;4159706;28;20053;-65
2022/02/24 06:49:23;;;;;;;14.07;9.60;;;25.10;74.40;;;;;;4161606;28;20600;-65
2022/02/24 06:51:27;;;;;;;14.48;9.73;;;25.10;74.80;;;;;;4160235;28;20112;-66
2022/02/24 06:53:34;;;;;;;12.43;10.13;;;25.00;74.10;;;;;;4161195;28;20049;-66
2022/02/24 06:55:41;;;;;;;12.40;9.15;;;25.10;75.00;;;;;;4160309;28;20045;-65
2022/02/24 06:57:47;;;;;;;12.38;9.23;;;25.20;75.30;;;;;;4160752;28;20049;-65
2022/02/24 06:59:53;;;;;;;13.77;9.50;;;25.30;74.50;;;;;;4161347;28;20104;-65
2022/02/24 07:02:00;;;;;;;14.88;9.57;;;25.30;73.90;;;;;;4161667;28;20168;-65
2022/02/24 07:04:06;;;;;;;14.07;10.45;;;25.30;74.50;;;;;;4164504;28;20128;-64
2022/02/24 07:06:13;;;;;;;14.50;10.18;;;25.30;73.90;;;;;;4159444;28;20170;-65
2022/02/24 07:08:19;;;;;;;14.60;9.25;;;25.20;73.60;;;;;;4157603;28;20037;-64
2022/02/24 07:10:24;;;;;;;12.48;8.75;;;25.30;74.00;;;;;;4164472;28;20049;-64
2022/02/24 07:12:32;;;;;;;12.55;10.00;;;25.30;74.00;;;;;;4163723;28;20514;-64
2022/02/24 07:14:39;;;;;;;15.25;9.15;;;25.30;73.60;;;;;;4164168;28;20041;-64
2022/02/24 07:16:45;;;;;;;13.70;9.60;;;25.40;75.10;;;;;;4167532;28;20087;-64
2022/02/24 07:18:50;;;;;;;16.20;10.15;;;25.50;74.20;;;;;;4164523;28;20369;-64
2022/02/24 07:20:55;;;;;;;15.13;10.70;;;25.50;74.50;;;;;;4163445;28;20507;-65
2022/02/24 07:23:00;;;;;;;13.48;9.13;;;25.40;74.10;;;;;;4163527;28;20052;-63
2022/02/24 07:25:08;;;;;;;11.95;9.55;;;25.50;75.00;;;;;;4163081;28;20353;-65
2022/02/24 07:27:17;;;;;;;11.40;9.48;;;25.60;74.00;;;;;;4162823;28;20060;-64
2022/02/24 07:29:22;;;;;;;13.75;9.65;;;25.50;74.30;;;;;;4164030;28;20562;-64
2022/02/24 07:31:29;;;;;;;12.95;9.52;;;25.40;74.40;;;;;;4162951;28;20556;-63
2022/02/24 07:33:35;;;;;;;12.55;10.15;;;25.60;73.70;;;;;;4153593;28;20116;-64
2022/02/24 07:35:39;;;;;;;18.90;11.43;;;25.50;73.50;;;;;;4155945;28;20140;-65
2022/02/24 07:37:44;;;;;;;12.73;9.98;;;25.50;73.00;;;;;;4163546;28;20049;-65
2022/02/24 07:39:49;;;;;;;13.93;10.02;;;25.60;73.20;;;;;;4163583;28;20050;-65
2022/02/24 07:41:54;;;;;;;13.50;10.02;;;25.60;73.40;;;;;;4162627;28;20072;-65
2022/02/24 07:43:58;;;;;;;14.15;9.82;;;25.60;73.60;;;;;;4163788;28;20046;-65
2022/02/24 07:46:05;;;;;;;11.95;8.93;;;25.60;73.60;;;;;;4160796;28;20049;-65
2022/02/24 07:48:09;;;;;;;13.63;10.23;;;25.70;73.70;;;;;;4163172;28;20045;-64
2022/02/24 07:50:16;;;;;;;14.18;9.90;;;25.80;74.80;;;;;;4162791;28;20043;-64
2022/02/24 07:52:23;;;;;;;15.70;9.82;;;25.90;73.60;;;;;;4163019;28;20046;-64
2022/02/24 07:54:27;;;;;;;15.50;10.52;;;25.80;74.10;;;;;;4163546;28;20119;-64
2022/02/24 07:56:35;;;;;;;16.27;10.15;;;25.80;74.50;;;;;;4161743;28;20104;-64
2022/02/24 07:58:41;;;;;;;11.95;9.32;;;25.80;73.70;;;;;;4162249;28;20146;-65
2022/02/24 08:00:47;;;;;;;12.80;10.20;;;25.90;73.90;;;;;;4163032;28;20130;-65
2022/02/24 08:02:56;;;;;;;16.02;10.02;;;25.80;73.40;;;;;;4155875;28;20055;-65
2022/02/24 08:05:04;;;;;;;14.50;10.20;;;25.80;73.70;;;;;;4162670;28;20080;-65
2022/02/24 08:07:09;;;;;;;11.90;9.70;;;25.80;73.30;;;;;;4162669;28;20054;-64
2022/02/24 08:09:15;;;;;;;13.52;9.93;;;25.80;73.50;;;;;;4163326;28;20142;-64
2022/02/24 08:11:22;;;;;;;14.15;10.40;;;25.80;74.40;;;;;;4162227;28;20165;-64
2022/02/24 08:13:28;;;;;;;14.70;10.77;;;25.90;73.50;;;;;;4161996;28;20054;-63
2022/02/24 08:15:35;;;;;;;14.52;10.65;;;25.90;73.10;;;;;;4162043;28;20047;-64
2022/02/24 08:17:42;;;;;;;13.48;10.98;;;25.90;71.90;;;;;;4161974;28;20133;-65
2022/02/24 08:19:47;;;;;;;13.95;10.93;;;25.80;72.80;;;;;;4162593;28;20076;-63
2022/02/24 08:21:54;;;;;;;16.58;11.10;;;25.90;72.70;;;;;;4162129;28;20507;-62
2022/02/24 08:23:59;;;;;;;15.70;11.27;;;25.90;72.70;;;;;;4163447;28;20100;-64
2022/02/24 08:26:05;;;;;;;17.40;11.40;;;26.00;72.10;;;;;;4164770;28;20545;-65
2022/02/24 08:28:14;;;;;;;18.17;11.07;;;26.00;72.40;;;;;;4163320;28;20045;-64
2022/02/24 08:30:24;;;;;;;17.35;11.10;;;25.90;71.00;;;;;;4163127;28;20049;-64
2022/02/24 08:32:29;;;;;;;13.13;10.43;;;26.00;71.90;;;;;;4162090;28;20045;-64
2022/02/24 08:34:36;;;;;;;14.85;11.43;;;26.10;72.30;;;;;;4163135;28;20492;-64
2022/02/24 08:36:43;;;;;;;15.38;10.90;;;26.10;71.40;;;;;;4160371;28;20042;-64
2022/02/24 08:38:48;;;;;;;13.40;10.55;;;26.10;72.10;;;;;;4162752;28;20389;-64
2022/02/24 08:41:14;;;;;;;16.80;11.25;;;26.20;72.40;;;;;;4161531;28;20103;-65
2022/02/24 08:43:22;;;;;;;13.25;11.15;;;26.10;71.50;;;;;;4162526;28;20049;-65
2022/02/24 08:45:27;;;;;;;14.60;11.40;;;26.20;71.40;;;;;;4162657;28;20132;-65
2022/02/24 08:47:32;;;;;;;13.30;10.05;;;26.10;71.60;;;;;;4161157;28;20080;-65
2022/02/24 08:49:38;;;;;;;14.75;10.85;;;26.10;71.50;;;;;;4168019;28;20041;-65
2022/02/24 08:51:42;;;;;;;17.48;11.30;;;26.10;71.20;;;;;;4152031;28;20033;-64
2022/02/24 08:53:49;;;;;;;16.63;11.05;;;26.10;71.90;;;;;;4152247;28;20061;-65
2022/02/24 08:55:53;;;;;;;17.70;11.60;;;26.10;71.80;;;;;;4146726;28;20551;-65
2022/02/24 08:57:58;;;;;;;14.63;11.48;;;26.20;71.40;;;;;;4151281;28;20038;-65
2022/02/24 09:00:07;;;;;;;13.73;11.05;;;26.20;71.40;;;;;;4154368;28;20041;-65
2022/02/24 09:02:14;;;;;;;14.30;11.70;;;26.20;71.30;;;;;;4154062;28;20072;-65
2022/02/24 09:04:19;;;;;;;15.90;11.40;;;26.20;71.30;;;;;;4156403;28;20061;-64
2022/02/24 09:06:25;;;;;;;14.63;11.80;;;26.10;71.60;;;;;;4153752;28;20053;-64
2022/02/24 09:08:31;;;;;;;17.88;11.90;;;26.10;71.70;;;;;;4155066;28;20149;-64
2022/02/24 09:10:35;;;;;;;18.50;12.05;;;26.10;71.20;;;;;;4152451;28;20046;-64
2022/02/24 09:12:42;;;;;;;16.13;11.23;;;26.20;72.00;;;;;;4148162;28;20046;-64
2022/02/24 09:14:48;;;;;;;14.82;11.05;;;26.10;71.40;;;;;;4148616;28;20807;-64
2022/02/24 09:16:53;;;;;;;17.08;11.75;;;26.10;71.70;;;;;;4149830;28;20045;-63
2022/02/24 09:19:00;;;;;;;15.55;11.02;;;26.20;71.40;;;;;;4169286;28;20480;-64
2022/02/24 09:21:07;;;;;;;14.98;11.35;;;26.20;71.20;;;;;;4167810;28;20052;-63
2022/02/24 09:23:13;;;;;;;15.38;11.73;;;26.10;71.40;;;;;;4162376;28;20152;-63
2022/02/24 09:25:19;;;;;;;18.80;12.75;;;26.10;71.20;;;;;;4161353;28;20128;-61
2022/02/24 09:27:28;;;;;;;16.58;12.25;;;26.10;71.50;;;;;;4161005;28;20053;-64
2022/02/24 09:29:37;;;;;;;19.23;11.77;;;26.10;71.70;;;;;;4161947;28;20079;-64
2022/02/24 09:31:44;;;;;;;15.95;11.93;;;26.10;72.00;;;;;;4153257;28;20060;-64
2022/02/24 09:33:51;;;;;;;19.48;12.25;;;26.10;71.90;;;;;;4162056;28;20045;-64
2022/02/24 09:35:56;;;;;;;18.23;13.00;;;26.10;72.20;;;;;;4186144;28;20086;-64
2022/02/24 09:38:02;;;;;;;16.92;12.18;;;26.10;72.50;;;;;;4160806;28;20048;-64
2022/02/24 09:40:11;;;;;;;17.38;12.25;;;26.20;72.60;;;;;;4156951;28;20049;-63
2022/02/24 09:42:36;;;;;;;24.17;13.48;;;26.10;72.60;;;;;;4161033;28;20144;-64
2022/02/24 09:44:42;;;;;;;18.55;12.10;;;26.10;72.60;;;;;;4161628;28;20128;-64
2022/02/24 09:46:51;;;;;;;15.88;12.80;;;26.10;72.50;;;;;;4161103;28;20045;-64
2022/02/24 09:48:56;;;;;;;17.45;12.73;;;26.10;72.10;;;;;;4161300;28;20045;-64
2022/02/24 09:51:01;;;;;;;14.63;11.85;;;26.00;72.70;;;;;;4161134;28;20047;-64
2022/02/24 09:53:09;;;;;;;16.55;12.68;;;26.00;72.80;;;;;;4156920;28;20615;-64
2022/02/24 09:55:13;;;;;;;15.77;12.75;;;26.10;72.60;;;;;;4146415;28;20124;-65
2022/02/24 09:57:22;;;;;;;18.15;12.98;;;26.10;72.90;;;;;;4151491;28;21237;-63
2022/02/24 09:59:30;;;;;;;18.10;13.07;;;26.10;73.50;;;;;;4151238;28;20505;-64
2022/02/24 10:01:36;;;;;;;18.20;13.07;;;26.10;73.70;;;;;;4152073;28;20060;-64
2022/02/24 10:03:46;;;;;;;16.63;13.05;;;26.00;73.80;;;;;;4155653;28;20072;-64
2022/02/24 10:05:52;;;;;;;17.90;13.23;;;26.10;74.10;;;;;;4157237;28;20163;-64
2022/02/24 10:08:09;;;;;;;16.08;12.32;;;26.00;74.10;;;;;;4161261;28;20045;-64
2022/02/24 10:10:31;;;;;;;15.13;12.57;;;26.00;74.20;;;;;;4156674;28;20049;-64
2022/02/24 10:12:38;;;;;;;19.17;12.93;;;26.00;74.20;;;;;;4157234;28;20080;-64
2022/02/24 10:14:43;;;;;;;17.27;12.63;;;26.00;74.10;;;;;;4161138;28;20642;-64
2022/02/24 10:17:06;;;;;;;15.88;12.48;;;26.00;74.00;;;;;;4160109;28;20076;-63
2022/02/24 10:19:13;;;;;;;15.98;12.15;;;26.00;73.90;;;;;;4157943;28;20152;-63
2022/02/24 10:21:25;;;;;;;17.40;12.52;;;26.00;73.40;;;;;;4159882;28;20053;-64
2022/02/24 10:23:37;;;;;;;17.23;12.23;;;25.90;73.60;;;;;;4160979;28;20731;-64
2022/02/24 10:25:51;;;;;;;19.45;13.02;;;25.90;73.70;;;;;;4160280;28;20053;-66
2022/02/24 10:27:56;;;;;;;15.70;12.35;;;25.90;73.70;;;;;;4160810;28;20080;-65
2022/02/24 10:30:14;;;;;;;19.40;12.48;;;25.90;74.00;;;;;;4159551;28;20136;-64
2022/02/24 10:32:41;;;;;;;17.25;12.90;;;25.80;74.20;;;;;;4157627;28;20045;-65
2022/02/24 10:34:45;;;;;;;18.25;13.18;;;25.80;74.40;;;;;;4159653;28;20038;-64
2022/02/24 10:36:50;;;;;;;16.63;13.32;;;25.80;75.00;;;;;;4154022;28;20045;-64
2022/02/24 10:39:18;;;;;;;15.80;12.77;;;25.80;75.20;;;;;;4161483;28;20048;-64
2022/02/24 10:41:30;;;;;;;15.18;12.18;;;25.70;74.60;;;;;;4161265;28;20049;-65
2022/02/24 10:43:39;;;;;;;21.08;12.63;;;25.70;75.00;;;;;;4159445;28;20103;-62
2022/02/24 10:45:58;;;;;;;17.92;12.52;;;25.70;74.90;;;;;;4160188;28;20463;-64